Time;durP1;ratioP1;P1;durP2;ratioP2;P2;SDS_P1;SDS_P2;PMS_P1;PMS_P2;Temp;Humidity;BMP_temperature;BMP_pressure;BME280_temperature;BME280_humidity;BME280_pressure;Samples;Min_cycle;Max_cycle;Signal;HPM_P1;HPM_P2
2023/07/06 00:02:14;;;;;;;;;3.25;3.00;;;;;18.73;100.00;101488.94;5057247;28;65121;-84
2023/07/06 00:04:39;;;;;;;;;1.25;1.25;;;;;18.67;100.00;101485.75;5075823;27;45282;-84
2023/07/06 00:07:05;;;;;;;;;2.00;2.00;;;;;18.64;100.00;101483.28;5074578;28;57046;-85
2023/07/06 00:09:35;;;;;;;;;2.00;1.00;;;;;18.63;100.00;101485.06;5077635;27;45384;-85
2023/07/06 00:12:00;;;;;;;;;4.50;1.75;;;;;18.58;100.00;101480.00;5078529;28;45475;-85
2023/07/06 00:14:26;;;;;;;;;3.25;2.00;;;;;18.51;100.00;101483.88;5079784;27;45416;-85
2023/07/06 00:17:15;;;;;;;;;2.00;2.00;;;;;18.51;100.00;101490.94;5078782;28;45438;-84
2023/07/06 00:19:41;;;;;;;;;2.50;2.00;;;;;18.53;100.00;101494.34;5078311;28;45416;-85
2023/07/06 00:22:09;;;;;;;;;3.75;2.00;;;;;18.50;100.00;101491.91;5061384;28;47612;-85
2023/07/06 00:24:35;;;;;;;;;2.00;2.00;;;;;18.48;100.00;101494.59;5078114;28;45798;-85
2023/07/06 00:27:01;;;;;;;;;1.75;1.50;;;;;18.45;100.00;101497.38;5078342;28;45565;-85
2023/07/06 00:29:29;;;;;;;;;2.25;1.50;;;;;18.42;100.00;101501.94;5079511;27;45291;-85
2023/07/06 00:32:04;;;;;;;;;2.00;2.00;;;;;18.42;100.00;101497.53;5078015;28;47032;-85
2023/07/06 00:34:36;;;;;;;;;4.75;2.00;;;;;18.50;100.00;101495.38;5078816;27;45584;-85
2023/07/06 00:37:03;;;;;;;;;3.00;1.00;;;;;18.41;100.00;101495.00;5078613;27;45251;-85
2023/07/06 00:39:28;;;;;;;;;4.50;3.00;;;;;18.38;100.00;101488.91;5077857;27;45544;-84
2023/07/06 00:41:54;;;;;;;;;1.00;1.00;;;;;18.41;100.00;101500.25;5077561;28;46764;-85
2023/07/06 00:44:50;;;;;;;;;5.00;2.00;;;;;18.43;100.00;101503.69;5077560;28;63022;-85
2023/07/06 00:47:18;;;;;;;;;4.25;1.75;;;;;18.38;100.00;101485.44;5069136;27;45806;-84
2023/07/06 00:49:44;;;;;;;;;3.00;2.00;;;;;18.33;100.00;101493.59;5077822;27;45400;-84
2023/07/06 00:52:10;;;;;;;;;3.25;1.00;;;;;18.30;100.00;101498.16;5077475;27;46669;-84
2023/07/06 00:54:40;;;;;;;;;3.00;2.00;;;;;18.24;100.00;101495.78;5077387;28;45763;-84
2023/07/06 00:57:07;;;;;;;;;2.00;2.00;;;;;18.27;100.00;101496.50;5079103;27;45333;-84
2023/07/06 00:59:33;;;;;;;;;2.75;2.00;;;;;18.27;100.00;101501.78;5077621;27;45649;-85
2023/07/06 01:01:59;;;;;;;;;3.50;1.00;;;;;18.18;100.00;101495.19;5077451;27;45506;-86
2023/07/06 01:04:30;;;;;;;;;2.00;1.00;;;;;18.17;100.00;101500.53;5077393;28;63762;-85
2023/07/06 01:06:56;;;;;;;;;2.00;2.00;;;;;18.19;100.00;101506.56;5077767;28;45393;-85
2023/07/06 01:09:22;;;;;;;;;1.75;1.00;;;;;18.21;100.00;101507.34;5077510;27;45506;-85
2023/07/06 01:11:48;;;;;;;;;6.00;1.25;;;;;18.18;100.00;101508.38;5060403;28;47422;-85
2023/07/06 01:14:14;;;;;;;;;2.00;2.00;;;;;18.06;100.00;101494.94;5076965;28;45515;-84
2023/07/06 01:16:47;;;;;;;;;2.00;2.00;;;;;18.13;100.00;101512.16;5073533;27;45359;-85
2023/07/06 01:19:40;;;;;;;;;1.25;1.25;;;;;18.16;100.00;101509.34;5057578;28;45311;-85
2023/07/06 01:22:19;;;;;;;;;1.00;1.00;;;;;18.15;100.00;101511.13;5073584;28;48440;-85
2023/07/06 01:25:23;;;;;;;;;3.50;3.00;;;;;18.11;100.00;101511.38;5062911;27;45260;-85
2023/07/06 01:28:13;;;;;;;;;2.50;2.50;;;;;18.04;100.00;101512.59;5079043;27;45415;-85
2023/07/06 01:31:19;;;;;;;;;1.75;1.75;;;;;18.01;100.00;101508.31;5079736;28;45320;-85
2023/07/06 01:34:01;;;;;;;;;3.25;2.00;;;;;17.93;100.00;101500.78;5061002;28;45438;-85
2023/07/06 01:36:46;;;;;;;;;5.75;1.75;;;;;17.96;100.00;101507.69;5040230;28;46082;-85
2023/07/06 01:39:28;;;;;;;;;2.25;2.25;;;;;17.95;100.00;101506.81;5058624;28;45424;-85
2023/07/06 01:42:26;;;;;;;;;2.00;2.00;;;;;17.93;100.00;101503.41;5062337;28;45477;-85
2023/07/06 01:44:56;;;;;;;;;3.50;1.75;;;;;17.99;100.00;101507.53;4979863;28;46191;-85
2023/07/06 01:47:22;;;;;;;;;2.50;2.00;;;;;18.03;100.00;101502.97;4995596;28;45745;-84
2023/07/06 01:49:49;;;;;;;;;1.50;1.00;;;;;17.99;100.00;101500.47;4979791;28;45431;-85
2023/07/06 01:52:44;;;;;;;;;1.75;1.00;;;;;17.97;100.00;101488.31;4979584;28;45523;-85
2023/07/06 01:55:40;;;;;;;;;1.00;1.00;;;;;17.98;100.00;101490.88;4964767;28;46486;-85
2023/07/06 01:58:24;;;;;;;;;4.75;2.00;;;;;17.99;100.00;101492.56;4995534;28;45671;-84
2023/07/06 02:00:55;;;;;;;;;2.75;2.00;;;;;17.97;100.00;101490.94;4995250;28;45436;-85
2023/07/06 02:03:24;;;;;;;;;4.25;3.25;;;;;17.96;100.00;101494.53;4979176;28;45536;-85
2023/07/06 02:05:53;;;;;;;;;4.50;2.00;;;;;17.85;100.00;101487.13;4979267;28;46393;-86
2023/07/06 02:08:18;;;;;;;;;3.00;3.00;;;;;17.79;100.00;101474.19;4995763;28;46209;-86
2023/07/06 02:10:44;;;;;;;;;3.00;2.00;;;;;17.83;100.00;101483.69;4978889;28;46865;-86
2023/07/06 02:13:10;;;;;;;;;3.00;1.25;;;;;17.82;100.00;101484.59;4961904;28;62651;-86
2023/07/06 02:15:35;;;;;;;;;3.25;2.00;;;;;17.71;100.00;101489.53;4994741;28;47401;-85
2023/07/06 02:18:04;;;;;;;;;2.00;2.00;;;;;17.70;100.00;101482.53;4994237;28;45523;-85
2023/07/06 02:20:29;;;;;;;;;3.00;2.00;;;;;17.60;100.00;101482.13;4982972;28;45420;-85
2023/07/06 02:22:55;;;;;;;;;2.50;1.00;;;;;17.51;100.00;101470.22;5076219;28;45325;-85
2023/07/06 02:25:20;;;;;;;;;4.75;2.50;;;;;17.57;100.00;101484.91;5076141;28;45413;-85
2023/07/06 02:27:47;;;;;;;;;2.50;0.75;;;;;17.47;100.00;101481.00;5076854;27;52066;-85
2023/07/06 02:30:12;;;;;;;;;4.00;2.00;;;;;17.51;100.00;101485.19;5077114;27;45334;-85
2023/07/06 02:32:39;;;;;;;;;1.25;1.00;;;;;17.47;100.00;101473.09;5075183;28;45245;-85
2023/07/06 02:35:05;;;;;;;;;2.00;2.00;;;;;17.51;100.00;101496.56;5075514;28;47372;-84
2023/07/06 02:37:31;;;;;;;;;2.00;2.00;;;;;17.43;100.00;101480.28;5076908;27;45806;-84
2023/07/06 02:40:00;;;;;;;;;6.25;2.00;;;;;17.52;100.00;101495.66;5077381;28;45298;-84
2023/07/06 02:42:26;;;;;;;;;2.00;2.00;;;;;17.51;100.00;101487.81;5076115;27;45545;-86
2023/07/06 02:44:51;;;;;;;;;2.00;2.00;;;;;17.44;100.00;101476.72;5077131;27;45542;-85
2023/07/06 02:47:17;;;;;;;;;2.50;2.00;;;;;17.49;100.00;101492.28;5077374;27;45381;-85
2023/07/06 02:49:42;;;;;;;;;3.50;1.00;;;;;17.50;100.00;101499.28;5075500;28;60278;-85
2023/07/06 02:52:07;;;;;;;;;1.00;1.00;;;;;17.46;100.00;101497.69;5076468;28;61229;-86
2023/07/06 02:54:33;;;;;;;;;2.00;1.50;;;;;17.35;100.00;101487.69;5075716;28;48376;-85
2023/07/06 02:57:00;;;;;;;;;3.00;2.75;;;;;17.31;100.00;101497.50;5075268;28;66908;-86
2023/07/06 02:59:29;;;;;;;;;2.25;2.25;;;;;17.33;100.00;101500.91;5075545;27;45453;-85
2023/07/06 03:01:58;;;;;;;;;1.75;1.75;;;;;17.24;100.00;101492.56;5076837;27;45363;-85
2023/07/06 03:04:24;;;;;;;;;5.25;1.00;;;;;17.25;100.00;101503.00;5076122;28;46144;-85
2023/07/06 03:06:50;;;;;;;;;4.25;1.25;;;;;17.25;100.00;101492.47;5075851;28;45453;-85
2023/07/06 03:09:15;;;;;;;;;4.00;2.00;;;;;17.31;100.00;101499.25;5076953;28;45452;-86
2023/07/06 03:11:44;;;;;;;;;1.25;1.25;;;;;17.38;100.00;101493.66;5077992;27;45437;-84
2023/07/06 03:14:12;;;;;;;;;2.50;1.00;;;;;17.33;100.00;101486.91;5080236;27;45619;-85
2023/07/06 03:16:40;;;;;;;;;3.50;2.00;;;;;17.28;100.00;101494.97;5061339;28;48003;-84
2023/07/06 03:19:08;;;;;;;;;2.75;1.50;;;;;17.26;100.00;101498.63;5075915;28;45533;-85
2023/07/06 03:21:38;;;;;;;;;2.75;1.00;;;;;17.24;100.00;101506.56;5075178;28;45366;-87
2023/07/06 03:24:08;;;;;;;;;3.00;1.00;;;;;17.22;100.00;101492.63;5076777;27;46335;-86
2023/07/06 03:26:37;;;;;;;;;2.00;1.25;;;;;17.27;100.00;101500.31;5088353;27;45695;-85
2023/07/06 03:29:07;;;;;;;;;1.50;1.25;;;;;17.26;100.00;101502.09;5089972;28;45519;-85
2023/07/06 03:31:33;;;;;;;;;3.50;2.75;;;;;17.26;100.00;101498.63;5089527;28;44951;-85
2023/07/06 03:34:00;;;;;;;;;2.25;1.25;;;;;17.19;100.00;101496.25;5087947;28;46425;-86
2023/07/06 03:36:28;;;;;;;;;3.00;1.00;;;;;17.19;100.00;101505.91;5088054;27;45263;-86
2023/07/06 03:38:53;;;;;;;;;1.25;1.00;;;;;17.18;100.00;101498.97;5085891;28;57677;-84
2023/07/06 03:41:19;;;;;;;;;2.00;2.00;;;;;17.15;100.00;101492.03;5086351;28;49446;-86
2023/07/06 03:43:45;;;;;;;;;2.00;2.00;;;;;17.12;100.00;101505.31;5088968;27;45563;-85
2023/07/06 03:46:12;;;;;;;;;1.75;1.75;;;;;16.98;100.00;101494.56;5087530;28;45757;-85
2023/07/06 03:48:40;;;;;;;;;3.00;2.00;;;;;17.00;100.00;101498.84;5076890;28;45318;-86
2023/07/06 03:51:07;;;;;;;;;2.00;2.00;;;;;17.03;100.00;101503.09;5078261;27;45419;-85
2023/07/06 03:53:35;;;;;;;;;2.00;2.00;;;;;17.02;100.00;101497.00;5076950;28;46557;-85
2023/07/06 03:56:01;;;;;;;;;3.00;2.00;;;;;16.98;100.00;101499.84;5076738;28;45409;-86
2023/07/06 03:58:26;;;;;;;;;1.75;1.75;;;;;16.87;100.00;101492.41;5078077;28;45441;-86
2023/07/06 04:00:58;;;;;;;;;2.00;2.00;;;;;16.86;100.00;101492.47;5059744;28;50928;-85
2023/07/06 04:03:32;;;;;;;;;4.75;2.50;;;;;16.87;100.00;101494.19;5078867;27;46388;-85
2023/07/06 04:06:00;;;;;;;;;2.00;1.00;;;;;16.81;100.00;101488.22;5076801;28;45322;-85
2023/07/06 04:08:26;;;;;;;;;4.00;3.00;;;;;16.81;100.00;101493.50;5076747;28;45378;-86
2023/07/06 04:10:51;;;;;;;;;4.75;1.75;;;;;16.88;100.00;101501.13;5075271;27;58052;-85
2023/07/06 04:13:17;;;;;;;;;4.00;2.00;;;;;16.84;100.00;101510.94;5076323;28;46193;-85
2023/07/06 04:15:47;;;;;;;;;4.25;1.25;;;;;16.88;100.00;101511.66;5075412;27;61215;-85
2023/07/06 04:18:15;;;;;;;;;3.00;1.00;;;;;16.91;100.00;101511.53;5074831;27;45418;-86
2023/07/06 04:20:40;;;;;;;;;4.00;1.00;;;;;16.95;100.00;101518.38;5058037;28;45525;-85
2023/07/06 04:23:06;;;;;;;;;3.00;1.50;;;;;16.92;100.00;101514.09;5074595;27;46462;-84
2023/07/06 04:25:33;;;;;;;;;5.50;3.00;;;;;16.90;100.00;101513.31;5074396;28;45434;-85
2023/07/06 04:28:26;;;;;;;;;6.00;4.00;;;;;16.90;100.00;101509.81;5057814;28;45343;-85
2023/07/06 04:30:51;;;;;;;;;2.00;2.00;;;;;16.89;100.00;101508.97;5052107;28;45581;-84
2023/07/06 04:33:19;;;;;;;;;4.00;2.75;;;;;16.89;100.00;101501.06;5070543;27;63374;-85
2023/07/06 04:35:44;;;;;;;;;2.25;2.25;;;;;16.89;100.00;101500.22;5075707;27;46015;-85
2023/07/06 04:38:10;;;;;;;;;4.00;3.00;;;;;16.91;100.00;101501.88;5057342;28;45321;-85
2023/07/06 04:40:38;;;;;;;;;3.50;2.00;;;;;16.92;100.00;101506.22;5075183;28;45400;-84
2023/07/06 04:43:04;;;;;;;;;3.25;3.00;;;;;16.92;100.00;101507.97;5057059;28;47279;-85
2023/07/06 04:45:29;;;;;;;;;2.00;2.00;;;;;16.99;100.00;101510.28;5075799;27;45381;-86
2023/07/06 04:47:56;;;;;;;;;4.00;4.00;;;;;17.01;100.00;101508.44;5057088;28;45443;-84
2023/07/06 04:50:25;;;;;;;;;6.25;3.25;;;;;17.01;100.00;101511.06;5073194;27;45698;-89
2023/07/06 04:52:58;;;;;;;;;4.25;3.75;;;;;17.15;100.00;101520.97;5055543;28;47202;-89
2023/07/06 04:55:29;;;;;;;;;4.25;3.25;;;;;17.18;100.00;101514.75;5075122;28;45497;-88
2023/07/06 04:57:56;;;;;;;;;9.25;3.50;;;;;17.15;100.00;101513.09;5079780;27;45325;-88
2023/07/06 05:00:29;;;;;;;;;2.50;2.25;;;;;17.22;100.00;101511.91;5078061;28;45582;-89
2023/07/06 05:03:12;;;;;;;;;3.00;1.75;;;;;17.18;100.00;101505.06;5079692;27;45401;-89
2023/07/06 05:05:45;;;;;;;;;3.00;3.00;;;;;17.24;100.00;101508.34;5062717;28;45370;-89
2023/07/06 05:08:16;;;;;;;;;4.00;2.00;;;;;17.30;100.00;101515.97;5061940;28;45375;-89
2023/07/06 05:10:54;;;;;;;;;8.75;4.50;;;;;17.26;100.00;101514.41;5077705;27;45450;-88
2023/07/06 05:13:20;;;;;;;;;6.00;5.00;;;;;17.32;100.00;101517.59;5061804;28;47164;-88
2023/07/06 05:15:50;;;;;;;;;7.00;2.75;;;;;17.35;100.00;101520.09;5077673;28;45887;-88
2023/07/06 05:18:19;;;;;;;;;7.00;4.00;;;;;17.47;100.00;101538.88;5077227;27;45452;-87
2023/07/06 05:20:49;;;;;;;;;5.50;3.00;;;;;17.38;100.00;101538.41;5060651;28;45580;-86
2023/07/06 05:23:16;;;;;;;;;8.75;4.00;;;;;17.50;100.00;101534.34;5076890;27;46488;-83
2023/07/06 05:25:41;;;;;;;;;5.75;5.00;;;;;17.44;100.00;101528.50;5076433;28;45865;-83
2023/07/06 05:28:10;;;;;;;;;5.25;3.25;;;;;17.38;100.00;101527.88;5076352;27;45828;-86
2023/07/06 05:30:39;;;;;;;;;4.50;4.50;;;;;17.39;100.00;101532.19;5078155;27;45432;-85
2023/07/06 05:33:05;;;;;;;;;3.25;3.00;;;;;17.34;100.00;101520.16;5076169;28;45562;-82
2023/07/06 05:35:32;;;;;;;;;3.00;2.50;;;;;17.37;100.00;101526.16;5076947;27;66484;-82
2023/07/06 05:37:58;;;;;;;;;4.00;4.00;;;;;17.46;100.00;101532.78;5077370;27;45470;-82
2023/07/06 05:40:24;;;;;;;;;5.25;2.75;;;;;17.41;100.00;101524.22;5076427;28;45325;-83
2023/07/06 05:42:49;;;;;;;;;4.25;3.25;;;;;17.44;100.00;101528.50;5076045;28;46944;-82
2023/07/06 05:45:15;;;;;;;;;5.00;3.50;;;;;17.46;100.00;101532.78;5077449;28;45343;-83
2023/07/06 05:47:40;;;;;;;;;5.75;3.75;;;;;17.46;100.00;101526.63;5077671;27;45462;-84
2023/07/06 05:50:06;;;;;;;;;3.50;2.00;;;;;17.55;100.00;101537.63;5077929;27;45211;-86
2023/07/06 05:52:32;;;;;;;;;4.75;3.00;;;;;17.60;100.00;101538.25;5076521;27;46981;-87
2023/07/06 05:54:57;;;;;;;;;6.25;2.25;;;;;17.57;100.00;101527.03;5076880;27;54414;-87
2023/07/06 05:57:26;;;;;;;;;4.50;3.00;;;;;17.57;100.00;101527.88;5059268;28;59198;-85
2023/07/06 05:59:55;;;;;;;;;2.00;0.00;;;;;17.56;100.00;101530.56;5060027;28;45605;-87
2023/07/06 06:02:22;;;;;;;;;7.75;3.75;;;;;17.60;100.00;101542.66;5077421;27;45511;-84
2023/07/06 06:04:48;;;;;;;;;4.50;4.00;;;;;17.65;100.00;101537.22;5076491;28;45883;-85
2023/07/06 06:07:14;;;;;;;;;6.25;3.75;;;;;17.72;100.00;101536.84;5059264;28;45388;-82
2023/07/06 06:09:39;;;;;;;;;3.75;3.00;;;;;17.70;100.00;101537.81;5077958;27;45539;-84
2023/07/06 06:12:07;;;;;;;;;3.25;3.00;;;;;17.81;100.00;101546.09;5076513;27;63661;-84
2023/07/06 06:14:34;;;;;;;;;3.75;3.00;;;;;17.79;100.00;101537.41;5076466;27;45452;-84
2023/07/06 06:17:00;;;;;;;;;3.00;3.00;;;;;17.90;100.00;101548.31;5076796;27;45479;-85
2023/07/06 06:19:27;;;;;;;;;3.25;2.50;;;;;17.92;100.00;101548.25;5077295;27;45339;-83
2023/07/06 06:21:53;;;;;;;;;5.00;3.25;;;;;17.93;100.00;101539.44;5076839;27;45501;-82
2023/07/06 06:24:18;;;;;;;;;3.00;1.50;;;;;18.01;100.00;101545.19;5076384;28;45343;-82
2023/07/06 06:26:44;;;;;;;;;5.75;2.50;;;;;18.05;100.00;101554.66;5076469;27;45783;-84
2023/07/06 06:29:09;;;;;;;;;4.00;3.00;;;;;18.00;100.00;101543.50;5075586;28;55046;-83
2023/07/06 06:31:42;;;;;;;;;2.25;2.00;;;;;18.12;100.00;101552.59;5074946;28;66420;-82
2023/07/06 06:34:08;;;;;;;;;2.25;2.00;;;;;18.12;100.00;101552.59;5075873;28;45651;-85
2023/07/06 06:36:33;;;;;;;;;3.00;2.00;;;;;18.15;100.00;101544.56;5075529;28;45405;-82
2023/07/06 06:38:59;;;;;;;;;5.00;3.00;;;;;18.28;100.00;101556.19;5077096;27;45408;-81
2023/07/06 06:41:24;;;;;;;;;3.00;2.50;;;;;18.35;100.00;101560.25;5075750;28;65969;-81
2023/07/06 06:43:49;;;;;;;;;2.00;2.00;;;;;18.40;100.00;101557.38;5076138;28;61767;-82
2023/07/06 06:46:15;;;;;;;;;2.00;2.00;;;;;18.45;100.00;101557.16;5076919;28;45318;-81
2023/07/06 06:48:41;;;;;;;;;3.50;3.25;;;;;18.48;100.00;101559.63;5076985;27;45454;-81
2023/07/06 06:51:10;;;;;;;;;3.00;1.75;;;;;18.55;100.00;101561.91;5076586;28;45365;-82
2023/07/06 06:53:39;;;;;;;;;3.00;2.00;;;;;18.61;100.00;101566.03;5075776;28;45729;-83
2023/07/06 06:56:04;;;;;;;;;3.50;3.50;;;;;18.59;100.00;101554.72;5075522;27;45320;-82
2023/07/06 06:58:30;;;;;;;;;3.00;2.00;;;;;18.59;100.00;101549.44;5074979;27;45530;-82
2023/07/06 07:01:00;;;;;;;;;2.50;1.00;;;;;18.67;100.00;101563.09;5073877;27;45526;-81
2023/07/06 07:03:27;;;;;;;;;2.50;2.50;;;;;18.76;100.00;101569.69;5076379;27;45408;-81
2023/07/06 07:06:14;;;;;;;;;1.50;0.75;;;;;18.81;100.00;101565.03;5074941;28;45420;-81
2023/07/06 07:08:41;;;;;;;;;6.50;3.00;;;;;18.91;100.00;101568.09;5075718;27;45448;-81
2023/07/06 07:11:07;;;;;;;;;2.75;2.00;;;;;18.97;100.00;101573.06;5076720;27;47465;-81
2023/07/06 07:13:35;;;;;;;;;4.50;2.75;;;;;18.97;100.00;101557.22;5076610;27;45409;-81
2023/07/06 07:16:01;;;;;;;;;3.00;2.00;;;;;19.05;100.00;101573.50;5075435;28;45342;-81
2023/07/06 07:18:27;;;;;;;;;1.00;1.00;;;;;19.13;100.00;101570.50;5076249;28;45812;-81
2023/07/06 07:20:53;;;;;;;;;2.00;0.50;;;;;19.18;100.00;101570.22;5075878;27;45570;-81
2023/07/06 07:23:21;;;;;;;;;2.25;1.00;;;;;19.20;100.00;101569.22;5074923;28;45341;-81
2023/07/06 07:25:48;;;;;;;;;1.00;1.00;;;;;19.27;100.00;101560.03;5076555;27;45436;-81
2023/07/06 07:28:16;;;;;;;;;1.00;1.00;;;;;19.32;100.00;101559.81;5075036;27;45404;-81
2023/07/06 07:30:42;;;;;;;;;1.75;1.00;;;;;19.40;100.00;101565.53;5075222;27;48183;-81
2023/07/06 07:33:07;;;;;;;;;2.00;0.25;;;;;19.39;100.00;101552.41;5075956;27;45428;-82
2023/07/06 07:35:32;;;;;;;;;2.75;1.00;;;;;19.45;100.00;101552.09;5075966;28;45377;-82
2023/07/06 07:37:58;;;;;;;;;0.00;0.00;;;;;19.42;100.00;101550.47;5074291;28;70255;-82
2023/07/06 07:40:23;;;;;;;;;3.00;0.25;;;;;19.60;100.00;101558.34;5075318;27;72386;-82
2023/07/06 07:42:49;;;;;;;;;1.00;0.00;;;;;19.66;100.00;101561.50;5074609;28;45382;-82
2023/07/06 07:45:15;;;;;;;;;1.50;1.00;;;;;19.75;100.00;101565.47;5074998;28;45349;-81
2023/07/06 07:47:40;;;;;;;;;0.00;0.00;;;;;19.83;100.00;101562.41;5076074;27;45253;-82
2023/07/06 07:50:06;;;;;;;;;3.00;1.25;;;;;19.89;100.00;101559.41;5074792;28;71556;-82
2023/07/06 07:52:32;;;;;;;;;1.50;1.00;;;;;19.91;100.00;101558.41;5075886;27;45653;-82
2023/07/06 07:54:57;;;;;;;;;0.00;0.00;;;;;19.94;100.00;101560.03;5074673;27;45417;-82
2023/07/06 07:57:22;;;;;;;;;1.25;1.00;;;;;19.98;100.00;101550.97;5075325;28;58443;-82
2023/07/06 07:59:51;;;;;;;;;1.00;1.00;;;;;20.06;100.00;101558.50;5073736;28;69814;-82
2023/07/06 08:02:17;;;;;;;;;4.00;1.25;;;;;20.09;100.00;101550.38;5075350;27;45311;-82
2023/07/06 08:04:43;;;;;;;;;1.25;1.25;;;;;20.20;100.00;101549.78;5074462;27;45532;-81
2023/07/06 08:07:08;;;;;;;;;2.75;1.00;;;;;20.22;100.00;101550.56;5075739;28;45455;-82
2023/07/06 08:09:33;;;;;;;;;1.50;1.25;;;;;20.25;100.00;101540.66;5074891;28;70533;-82
2023/07/06 08:11:58;;;;;;;;;2.50;1.00;;;;;20.35;100.00;101553.34;5073715;28;65348;-82
2023/07/06 08:14:38;;;;;;;;;4.00;2.00;;;;;20.38;100.00;101542.63;5074934;27;61195;-81
2023/07/06 08:17:05;;;;;;;;;1.25;0.50;;;;;20.47;100.00;101548.22;5075478;27;45375;-82
2023/07/06 08:19:32;;;;;;;;;2.75;1.00;;;;;20.52;100.00;101553.22;5074088;28;47447;-82
2023/07/06 08:21:58;;;;;;;;;3.50;2.00;;;;;20.58;100.00;101536.13;5074256;27;45679;-82
2023/07/06 08:24:24;;;;;;;;;2.00;1.25;;;;;20.62;100.00;101525.34;5074448;28;45428;-82
2023/07/06 08:26:49;;;;;;;;;2.00;2.00;;;;;20.75;100.00;101538.69;5075397;28;45365;-82
2023/07/06 08:29:15;;;;;;;;;4.00;2.00;;;;;20.83;100.00;101541.72;5075532;27;46331;-82
2023/07/06 08:31:41;;;;;;;;;2.50;2.00;;;;;20.87;100.00;101545.03;5075320;28;45766;-82
2023/07/06 08:34:06;;;;;;;;;4.00;1.00;;;;;20.92;100.00;101542.13;5077801;28;45440;-82
2023/07/06 08:36:33;;;;;;;;;4.00;2.00;;;;;21.02;100.00;101538.84;5077828;28;45444;-82
2023/07/06 08:39:00;;;;;;;;;3.00;1.00;;;;;21.08;100.00;101525.25;5078528;27;46445;-82
2023/07/06 08:41:31;;;;;;;;;3.00;2.00;;;;;21.18;100.00;101537.91;5078536;27;45812;-82
2023/07/06 08:43:59;;;;;;;;;1.00;1.00;;;;;21.18;100.00;101537.91;5077886;28;45369;-81
2023/07/06 08:46:32;;;;;;;;;3.00;1.00;;;;;21.26;100.00;101533.00;5078361;27;45322;-81
2023/07/06 08:48:57;;;;;;;;;2.50;2.00;;;;;21.35;100.00;101537.72;5077429;27;47466;-82
2023/07/06 08:51:34;;;;;;;;;1.50;1.50;;;;;21.38;100.00;101534.06;5077145;27;45404;-81
2023/07/06 08:54:02;;;;;;;;;2.75;2.75;;;;;21.32;100.00;101527.34;5077245;27;45342;-81
2023/07/06 08:56:29;;;;;;;;;3.75;2.00;;;;;21.46;100.00;101537.94;5078552;27;45538;-81
2023/07/06 08:58:57;;;;;;;;;2.25;2.25;;;;;21.52;100.00;101538.50;5078416;27;46343;-81
2023/07/06 09:01:23;;;;;;;;;3.25;1.75;;;;;21.59;100.00;101542.47;5076840;27;45342;-81
2023/07/06 09:03:59;;;;;;;;;2.00;2.00;;;;;21.63;100.00;101542.19;5077394;28;45696;-81
2023/07/06 09:06:27;;;;;;;;;1.00;1.00;;;;;21.72;100.00;101539.91;5077271;28;45563;-81
2023/07/06 09:09:01;;;;;;;;;3.75;1.00;;;;;21.75;100.00;101537.03;5077009;27;46902;-81
2023/07/06 09:11:28;;;;;;;;;2.75;2.75;;;;;21.77;100.00;101537.84;5077065;28;45371;-81
2023/07/06 09:13:55;;;;;;;;;2.25;1.00;;;;;21.88;100.00;101545.06;5078306;27;45352;-81
2023/07/06 09:16:21;;;;;;;;;3.25;1.00;;;;;21.90;100.00;101541.41;5078100;27;45244;-81
2023/07/06 09:18:47;;;;;;;;;3.75;1.00;;;;;21.98;100.00;101531.13;5076922;28;45657;-81
2023/07/06 09:21:14;;;;;;;;;4.25;1.00;;;;;22.04;100.00;101535.19;5076611;27;45539;-81
2023/07/06 09:23:44;;;;;;;;;5.00;3.50;;;;;22.12;100.00;101535.56;5078402;27;45275;-81
2023/07/06 09:26:19;;;;;;;;;3.50;2.00;;;;;22.19;100.00;101536.88;5078133;27;45354;-81
2023/07/06 09:28:45;;;;;;;;;3.75;1.00;;;;;22.24;100.00;101539.19;5076569;27;46358;-81
2023/07/06 09:31:20;;;;;;;;;5.00;2.00;;;;;22.32;100.00;101530.78;5075492;28;68886;-81
2023/07/06 09:33:48;;;;;;;;;2.00;1.50;;;;;22.45;100.00;101529.00;5056521;28;45430;-81
2023/07/06 09:36:23;;;;;;;;;3.00;3.00;;;;;22.58;100.00;101537.00;5057851;28;45524;-81
2023/07/06 09:38:49;;;;;;;;;5.00;2.00;;;;;22.66;100.00;101526.72;5057605;28;45482;-81
2023/07/06 09:41:25;;;;;;;;;3.00;2.00;;;;;22.69;100.00;101525.66;5072948;27;45443;-81
2023/07/06 09:44:03;;;;;;;;;3.00;2.00;;;;;22.81;100.00;101536.28;5057267;28;45357;-81
2023/07/06 09:46:35;;;;;;;;;4.00;2.50;;;;;22.89;100.00;101516.34;5056273;28;45505;-81
2023/07/06 09:49:01;;;;;;;;;3.50;2.00;;;;;23.04;100.00;101531.25;5057563;28;45361;-81
2023/07/06 09:51:43;;;;;;;;;3.00;1.00;;;;;23.19;100.00;101526.66;5056058;28;45822;-81
2023/07/06 09:54:17;;;;;;;;;5.50;2.00;;;;;23.34;100.00;101530.06;5056247;28;45438;-81
2023/07/06 09:56:43;;;;;;;;;4.00;1.00;;;;;23.45;100.00;101521.34;5056114;28;45373;-81
2023/07/06 09:59:09;;;;;;;;;4.00;2.00;;;;;23.63;100.00;101529.81;5056966;28;45405;-81
2023/07/06 10:02:05;;;;;;;;;1.50;1.50;;;;;23.84;100.00;101527.44;5073021;28;45433;-81
2023/07/06 10:04:56;;;;;;;;;1.75;1.00;;;;;24.00;100.00;101519.19;5057439;28;45441;-82
2023/07/06 10:07:46;;;;;;;;;2.50;2.00;;;;;24.18;100.00;101523.13;5056094;28;45458;-82
2023/07/06 10:10:49;;;;;;;;;3.00;1.75;;;;;24.37;100.00;101524.41;5056982;28;45298;-81
2023/07/06 10:13:44;;;;;;;;;1.00;0.75;;;;;24.50;100.00;101517.25;5056658;28;45651;-81
2023/07/06 10:16:23;;;;;;;;;5.25;2.00;;;;;24.58;100.00;101516.69;5057106;28;45424;-81
2023/07/06 10:18:56;;;;;;;;;2.00;2.00;;;;;24.72;100.00;101516.47;5072769;27;45602;-82
2023/07/06 10:21:26;;;;;;;;;2.75;1.00;;;;;24.78;100.00;101509.84;5055638;28;45509;-81
2023/07/06 10:24:22;;;;;;;;;1.75;1.75;;;;;24.92;100.00;101513.13;5055674;28;45465;-82
2023/07/06 10:26:52;;;;;;;;;2.00;1.00;;;;;25.00;100.00;101512.53;5057089;28;45400;-81
2023/07/06 10:29:24;;;;;;;;;2.75;1.75;;;;;24.99;100.00;101516.16;5065611;27;45450;-81
2023/07/06 10:31:55;;;;;;;;;2.75;2.00;;;;;24.88;100.00;101505.50;5058680;28;47280;-82
2023/07/06 10:34:35;;;;;;;;;1.75;1.50;;;;;24.85;100.00;101511.03;5075862;28;45844;-82
2023/07/06 10:37:02;;;;;;;;;2.25;1.75;;;;;24.78;100.00;101502.69;5076003;27;45366;-82
2023/07/06 10:39:28;;;;;;;;;3.25;2.25;;;;;24.83;100.00;101513.84;5077057;27;45303;-82
2023/07/06 10:42:01;;;;;;;;;5.33;2.33;;;;;24.89;100.00;101505.38;5076197;28;46299;-81
2023/07/06 10:44:45;;;;;;;;;4.75;1.50;;;;;25.00;100.00;101511.66;5076610;27;45502;-81
2023/07/06 10:47:28;;;;;;;;;3.50;1.00;;;;;25.21;100.00;101510.00;5077054;27;45370;-82
2023/07/06 10:50:30;;;;;;;;;4.00;2.75;;;;;25.45;98.22;101511.72;5076825;27;45584;-81
2023/07/06 10:53:21;;;;;;;;;3.25;1.75;;;;;25.57;97.65;101508.06;5076399;27;45390;-81
2023/07/06 10:56:05;;;;;;;;;1.50;1.50;;;;;25.70;95.69;101507.91;5075307;28;45434;-80
2023/07/06 10:58:33;;;;;;;;;2.25;2.00;;;;;25.91;94.32;101507.13;5076467;27;45376;-81
2023/07/06 11:01:01;;;;;;;;;1.00;1.00;;;;;26.01;94.67;101503.63;5075429;27;45312;-81
2023/07/06 11:03:30;;;;;;;;;2.00;2.00;;;;;26.16;93.63;101503.34;5075190;28;47284;-81
2023/07/06 11:06:10;;;;;;;;;3.75;2.00;;;;;26.31;90.78;101501.22;5076385;27;45345;-81
2023/07/06 11:08:58;;;;;;;;;4.00;2.00;;;;;26.44;90.39;101504.53;5058493;27;45469;-82
2023/07/06 11:11:27;;;;;;;;;3.50;2.00;;;;;26.45;89.17;101501.75;5076131;27;45309;-81
2023/07/06 11:13:53;;;;;;;;;3.00;1.00;;;;;26.43;90.13;101487.69;5074991;28;48779;-81
2023/07/06 11:17:03;;;;;;;;;3.00;1.00;;;;;26.32;87.59;101495.75;5076259;27;45384;-81
2023/07/06 11:19:49;;;;;;;;;4.00;2.50;;;;;26.24;88.01;101488.38;5065220;27;45518;-81
2023/07/06 11:22:21;;;;;;;;;3.50;2.00;;;;;26.18;85.64;101488.88;5075297;27;45469;-81
2023/07/06 11:24:49;;;;;;;;;2.00;1.00;;;;;26.23;85.41;101493.84;5075073;28;46367;-82
2023/07/06 11:27:35;;;;;;;;;2.00;2.00;;;;;26.19;83.96;101489.75;5074867;28;45704;-81
2023/07/06 11:30:06;;;;;;;;;3.75;1.75;;;;;26.34;84.14;101493.78;5076031;28;45495;-81
2023/07/06 11:32:52;;;;;;;;;2.50;2.00;;;;;26.65;85.37;101478.72;5074808;27;45382;-81